createdAt,value
2019-03-30T00:00:58.094Z,6.51
2019-03-30T00:01:58.943Z,6.50
2019-03-30T00:02:59.767Z,6.49
2019-03-30T00:03:59.781Z,6.48
2019-03-30T00:04:59.992Z,6.47
2019-03-30T00:06:00.482Z,6.46
2019-03-30T00:07:00.584Z,6.45
2019-03-30T00:08:01.418Z,6.44
2019-03-30T00:09:01.939Z,6.43
2019-03-30T00:10:02.436Z,6.42
2019-03-30T00:11:03.166Z,6.42
2019-03-30T00:12:03.990Z,6.41
2019-03-30T00:13:04.503Z,6.41
2019-03-30T00:14:05.271Z,6.40
2019-03-30T00:15:06.036Z,6.40
2019-03-30T00:16:06.818Z,6.39
2019-03-30T00:17:06.294Z,6.38
2019-03-30T00:18:07.889Z,6.38
2019-03-30T00:19:08.733Z,6.37
2019-03-30T00:20:09.289Z,6.36
2019-03-30T00:20:17.844Z,6.24
2019-03-30T00:21:19.404Z,6.23
2019-03-30T00:22:20.035Z,6.23
2019-03-30T00:23:20.625Z,6.24
2019-03-30T00:24:21.202Z,6.24
2019-03-30T00:25:21.675Z,6.24
2019-03-30T00:26:22.339Z,6.23
2019-03-30T00:27:23.305Z,6.23
2019-03-30T00:28:24.189Z,6.22
2019-03-30T00:29:24.939Z,6.21
2019-03-30T00:30:25.535Z,6.21
2019-03-30T00:31:26.138Z,6.20
2019-03-30T00:32:26.815Z,6.20
2019-03-30T00:33:27.571Z,6.19
2019-03-30T00:34:28.212Z,6.19
2019-03-30T00:35:28.783Z,6.18
2019-03-30T00:36:28.492Z,6.17
2019-03-30T00:37:30.403Z,6.16
2019-03-30T00:38:31.036Z,6.15
2019-03-30T00:39:31.391Z,6.14
2019-03-30T00:40:31.919Z,6.13
2019-03-30T00:41:32.656Z,6.12
2019-03-30T00:42:33.129Z,6.11
2019-03-30T00:43:33.662Z,6.10
2019-03-30T00:44:34.368Z,6.08
2019-03-30T00:45:34.943Z,6.07
2019-03-30T00:46:35.694Z,6.07
2019-03-30T00:47:36.264Z,6.06
2019-03-30T00:48:36.432Z,6.06
2019-03-30T00:49:48.491Z,6.06
2019-03-30T00:50:37.206Z,6.06
2019-03-30T00:51:39.009Z,6.05
2019-03-30T00:52:39.553Z,6.05
2019-03-30T00:53:40.124Z,6.04
2019-03-30T00:54:39.081Z,6.03
2019-03-30T00:55:40.897Z,6.02
2019-03-30T00:56:41.544Z,6.02
2019-03-30T00:57:42.073Z,6.01
2019-03-30T00:58:42.651Z,6.00
2019-03-30T00:59:43.335Z,5.99
2019-03-30T01:00:44.282Z,5.98
2019-03-30T01:01:44.868Z,5.96
2019-03-30T01:02:45.558Z,5.95
2019-03-30T01:03:45.093Z,5.93
2019-03-30T01:04:46.679Z,5.91
2019-03-30T01:05:47.425Z,5.90
2019-03-30T01:06:48.182Z,5.88
2019-03-30T01:06:56.762Z,5.55
2019-03-30T01:07:57.780Z,5.55
2019-03-30T01:08:58.372Z,5.55
2019-03-30T01:09:58.955Z,5.55
2019-03-30T01:10:59.601Z,5.55
2019-03-30T01:12:00.181Z,5.55
2019-03-30T01:13:00.750Z,5.54
2019-03-30T01:14:01.353Z,5.53
2019-03-30T01:15:02.069Z,5.52
2019-03-30T01:16:02.569Z,5.51
2019-03-30T01:17:03.356Z,5.50
2019-03-30T01:18:03.915Z,5.50
2019-03-30T01:19:04.436Z,5.49
2019-03-30T01:20:05.336Z,5.48
2019-03-30T01:21:05.908Z,5.48
2019-03-30T01:22:06.757Z,5.47
2019-03-30T01:23:07.295Z,5.46
2019-03-30T01:24:07.833Z,5.45
2019-03-30T01:25:08.495Z,5.44
2019-03-30T01:26:09.177Z,5.43
2019-03-30T01:27:09.784Z,5.43
2019-03-30T01:28:10.368Z,5.43
2019-03-30T01:29:10.894Z,5.42
2019-03-30T01:30:22.539Z,5.42
2019-03-30T01:31:10.640Z,5.42
2019-03-30T01:32:12.230Z,5.42
2019-03-30T01:33:12.933Z,5.42
2019-03-30T01:34:12.684Z,5.42
2019-03-30T01:35:13.106Z,5.41
2019-03-30T01:36:13.610Z,5.40
2019-03-30T01:37:14.283Z,5.40
2019-03-30T01:38:15.929Z,5.39
2019-03-30T01:39:15.907Z,5.39
2019-03-30T01:40:16.456Z,5.39
2019-03-30T01:41:17.014Z,5.39
2019-03-30T01:42:17.661Z,5.39
2019-03-30T01:43:18.220Z,5.38
2019-03-30T01:44:18.852Z,5.37
2019-03-30T01:45:19.419Z,5.36
2019-03-30T01:46:20.006Z,5.35
2019-03-30T01:47:20.718Z,5.34
2019-03-30T01:48:21.262Z,5.33
2019-03-30T01:49:21.825Z,5.32
2019-03-30T01:50:22.408Z,5.30
2019-03-30T01:51:22.988Z,5.29
2019-03-30T01:52:23.183Z,5.29
2019-03-30T01:53:23.816Z,5.29
2019-03-30T01:53:32.329Z,5.34
2019-03-30T01:54:33.779Z,5.34
2019-03-30T01:55:34.367Z,5.34
2019-03-30T01:56:34.009Z,5.33
2019-03-30T01:57:35.682Z,5.33
2019-03-30T01:58:36.508Z,5.32
2019-03-30T01:59:37.192Z,5.32
2019-03-30T02:00:37.730Z,5.32
2019-03-30T02:01:38.278Z,5.31
2019-03-30T02:02:38.872Z,5.31
2019-03-30T02:03:39.410Z,5.31
2019-03-30T02:04:40.217Z,5.31
2019-03-30T02:05:40.904Z,5.30
2019-03-30T02:06:41.394Z,5.30
2019-03-30T02:07:41.936Z,5.29
2019-03-30T02:08:42.491Z,5.29
2019-03-30T02:09:43.009Z,5.27
2019-03-30T02:10:43.597Z,5.26
2019-03-30T02:11:44.134Z,5.26
2019-03-30T02:12:44.674Z,5.25
2019-03-30T02:13:45.418Z,5.24
2019-03-30T02:14:45.946Z,5.23
2019-03-30T02:15:46.500Z,5.22
2019-03-30T02:16:47.427Z,5.21
2019-03-30T02:17:47.885Z,5.20
2019-03-30T02:18:47.912Z,5.18
2019-03-30T02:19:48.489Z,5.17
2019-03-30T02:20:49.162Z,5.15
2019-03-30T02:21:49.820Z,5.13
2019-03-30T02:22:50.449Z,5.12
2019-03-30T02:23:51.103Z,5.10
2019-03-30T02:24:51.659Z,5.09
2019-03-30T02:25:52.195Z,5.08
2019-03-30T02:26:52.782Z,5.06
2019-03-30T02:27:53.566Z,5.05
2019-03-30T02:28:54.295Z,5.04
2019-03-30T02:29:54.896Z,5.03
2019-03-30T02:30:55.601Z,5.02
2019-03-30T02:31:56.527Z,5.01
2019-03-30T02:32:57.262Z,5.00
2019-03-30T02:33:58.029Z,4.99
2019-03-30T02:34:58.614Z,4.99
2019-03-30T02:35:59.309Z,4.98
2019-03-30T02:36:08.328Z,4.91
2019-03-30T02:37:10.038Z,4.91
2019-03-30T02:38:10.899Z,4.91
2019-03-30T02:39:10.728Z,4.90
2019-03-30T02:40:12.316Z,4.90
2019-03-30T02:41:12.821Z,4.89
2019-03-30T02:42:13.554Z,4.88
2019-03-30T02:43:14.061Z,4.87
2019-03-30T02:44:14.620Z,4.86
2019-03-30T02:45:15.241Z,4.86
2019-03-30T02:46:15.808Z,4.85
2019-03-30T02:47:16.139Z,4.84
2019-03-30T02:48:16.895Z,4.83
2019-03-30T02:49:17.417Z,4.82
2019-03-30T02:50:18.079Z,4.80
2019-03-30T02:51:18.648Z,4.78
2019-03-30T02:52:18.662Z,4.77
2019-03-30T02:53:19.366Z,4.76
2019-03-30T02:54:21.232Z,4.75
2019-03-30T02:55:19.897Z,4.74
2019-03-30T02:56:21.459Z,4.73
2019-03-30T02:57:22.166Z,4.72
2019-03-30T02:58:22.249Z,4.72
2019-03-30T02:59:22.976Z,4.71
2019-03-30T03:00:23.533Z,4.71
2019-03-30T03:01:24.282Z,4.70
2019-03-30T03:02:24.282Z,4.69
2019-03-30T03:03:24.375Z,4.69
2019-03-30T03:04:25.263Z,4.68
2019-03-30T03:05:25.738Z,4.67
2019-03-30T03:06:26.011Z,4.66
2019-03-30T03:07:26.010Z,4.65
2019-03-30T03:08:26.465Z,4.63
2019-03-30T03:09:26.567Z,4.61
2019-03-30T03:10:26.893Z,4.58
2019-03-30T03:11:26.728Z,4.55
2019-03-30T03:12:28.292Z,4.53
2019-03-30T03:13:28.763Z,4.51
2019-03-30T03:14:29.425Z,4.49
2019-03-30T03:15:29.974Z,4.47
2019-03-30T03:16:30.585Z,4.45
2019-03-30T03:17:31.193Z,4.43
2019-03-30T03:18:31.729Z,4.41
2019-03-30T03:19:32.291Z,4.39
2019-03-30T03:20:33.134Z,4.38
2019-03-30T03:21:33.721Z,4.36
2019-03-30T03:22:34.273Z,4.35
2019-03-30T03:22:42.825Z,4.15
2019-03-30T03:23:44.491Z,4.15
2019-03-30T03:24:45.064Z,4.15
2019-03-30T03:25:45.826Z,4.15
2019-03-30T03:26:46.452Z,4.16
2019-03-30T03:27:47.073Z,4.17
2019-03-30T03:28:47.622Z,4.17
2019-03-30T03:29:48.207Z,4.18
2019-03-30T03:30:48.782Z,4.18
2019-03-30T03:31:48.350Z,4.18
2019-03-30T03:32:50.303Z,4.18
2019-03-30T03:33:51.045Z,4.18
2019-03-30T03:34:51.758Z,4.18
2019-03-30T03:35:51.384Z,4.18
2019-03-30T03:36:52.831Z,4.18
2019-03-30T03:37:53.497Z,4.18
2019-03-30T03:38:54.011Z,4.18
2019-03-30T03:39:54.590Z,4.17
2019-03-30T03:40:55.285Z,4.17
2019-03-30T03:41:55.933Z,4.16
2019-03-30T03:42:56.480Z,4.16
2019-03-30T03:43:57.048Z,4.15
2019-03-30T03:44:57.579Z,4.15
2019-03-30T03:45:58.109Z,4.15
2019-03-30T03:46:58.719Z,4.16
2019-03-30T03:47:59.548Z,4.16
2019-03-30T03:49:00.475Z,4.17
2019-03-30T03:50:01.081Z,4.18
2019-03-30T03:51:01.691Z,4.18
2019-03-30T03:52:02.419Z,4.18
2019-03-30T03:53:03.086Z,4.18
2019-03-30T03:54:03.606Z,4.18
2019-03-30T03:55:03.495Z,4.18
2019-03-30T03:56:05.011Z,4.19
2019-03-30T03:57:05.546Z,4.19
2019-03-30T03:58:06.214Z,4.19
2019-03-30T03:59:06.738Z,4.18
2019-03-30T04:00:07.593Z,4.17
2019-03-30T04:01:08.182Z,4.16
2019-03-30T04:02:08.310Z,4.16
2019-03-30T04:03:08.866Z,4.14
2019-03-30T04:04:09.361Z,4.13
2019-03-30T04:05:09.884Z,4.12
2019-03-30T04:06:09.416Z,4.11
2019-03-30T04:07:11.031Z,4.10
2019-03-30T04:08:11.818Z,4.08
2019-03-30T04:09:12.332Z,4.07
2019-03-30T04:09:20.848Z,3.82
2019-03-30T04:10:22.293Z,3.82
2019-03-30T04:11:22.940Z,3.82
2019-03-30T04:12:23.817Z,3.82
2019-03-30T04:13:24.316Z,3.82
2019-03-30T04:14:24.997Z,3.82
2019-03-30T04:15:25.256Z,3.82
2019-03-30T04:16:25.830Z,3.81
2019-03-30T04:17:26.687Z,3.81
2019-03-30T04:18:27.267Z,3.80
2019-03-30T04:19:27.944Z,3.79
2019-03-30T04:20:28.540Z,3.78
2019-03-30T04:21:42.908Z,3.77
2019-03-30T04:22:29.107Z,3.76
2019-03-30T04:23:30.716Z,3.75
2019-03-30T04:24:31.525Z,3.75
2019-03-30T04:25:32.025Z,3.74
2019-03-30T04:26:32.704Z,3.73
2019-03-30T04:27:33.247Z,3.73
2019-03-30T04:28:34.109Z,3.72
2019-03-30T04:29:34.674Z,3.71
2019-03-30T04:30:35.175Z,3.70
2019-03-30T04:31:35.361Z,3.69
2019-03-30T04:32:35.956Z,3.68
2019-03-30T04:33:36.522Z,3.68
2019-03-30T04:34:37.271Z,3.66
2019-03-30T04:35:37.812Z,3.65
2019-03-30T04:36:38.470Z,3.64
2019-03-30T04:37:39.338Z,3.63
2019-03-30T04:38:39.896Z,3.63
2019-03-30T04:39:40.568Z,3.62
2019-03-30T04:40:41.163Z,3.62
2019-03-30T04:41:41.827Z,3.63
2019-03-30T04:42:42.470Z,3.63
2019-03-30T04:43:43.052Z,3.63
2019-03-30T04:44:43.855Z,3.64
2019-03-30T04:45:44.439Z,3.64
2019-03-30T04:46:45.133Z,3.63
2019-03-30T04:47:45.721Z,3.63
2019-03-30T04:48:46.203Z,3.62
2019-03-30T04:49:46.780Z,3.61
2019-03-30T04:50:46.811Z,3.61
2019-03-30T04:51:57.445Z,3.61
2019-03-30T04:52:47.049Z,3.60
2019-03-30T04:53:48.582Z,3.60
2019-03-30T04:54:49.455Z,3.59
2019-03-30T04:55:48.867Z,3.58
2019-03-30T04:55:58.913Z,3.47
2019-03-30T04:57:00.359Z,3.47
2019-03-30T04:58:00.898Z,3.46
2019-03-30T04:59:00.892Z,3.46
2019-03-30T05:00:01.416Z,3.46
2019-03-30T05:01:01.911Z,3.46
2019-03-30T05:02:01.944Z,3.45
2019-03-30T05:03:02.526Z,3.45
2019-03-30T05:04:03.038Z,3.45
2019-03-30T05:05:03.866Z,3.45
2019-03-30T05:06:04.560Z,3.45
2019-03-30T05:07:05.119Z,3.45
2019-03-30T05:08:05.319Z,3.45
2019-03-30T05:09:05.940Z,3.45
2019-03-30T05:10:06.510Z,3.45
2019-03-30T05:11:07.023Z,3.45
2019-03-30T05:12:07.532Z,3.45
2019-03-30T05:13:07.976Z,3.44
2019-03-30T05:14:08.276Z,3.44
2019-03-30T05:15:08.776Z,3.44
2019-03-30T05:16:09.622Z,3.44
2019-03-30T05:17:10.520Z,3.44
2019-03-30T05:18:11.167Z,3.44
2019-03-30T05:19:11.993Z,3.44
2019-03-30T05:20:11.318Z,3.45
2019-03-30T05:21:12.989Z,3.45
2019-03-30T05:22:16.428Z,3.45
2019-03-30T05:23:12.934Z,3.45
2019-03-30T05:24:14.892Z,3.45
2019-03-30T05:25:14.344Z,3.45
2019-03-30T05:26:15.898Z,3.45
2019-03-30T05:27:16.620Z,3.45
2019-03-30T05:28:17.214Z,3.45
2019-03-30T05:29:17.706Z,3.46
2019-03-30T05:30:18.420Z,3.46
2019-03-30T05:31:18.995Z,3.46
2019-03-30T05:32:19.840Z,3.46
2019-03-30T05:33:20.468Z,3.46
2019-03-30T05:34:21.148Z,3.46
2019-03-30T05:35:21.611Z,3.46
2019-03-30T05:36:22.202Z,3.46
2019-03-30T05:37:22.766Z,3.45
2019-03-30T05:38:22.893Z,3.45
2019-03-30T05:39:23.459Z,3.46
2019-03-30T05:40:23.980Z,3.47
2019-03-30T05:41:24.682Z,3.48
2019-03-30T05:41:33.204Z,3.63
2019-03-30T05:42:35.098Z,3.62
2019-03-30T05:43:35.693Z,3.63
2019-03-30T05:44:36.246Z,3.63
2019-03-30T05:45:36.019Z,3.64
2019-03-30T05:46:37.712Z,3.64
2019-03-30T05:47:38.282Z,3.65
2019-03-30T05:48:38.876Z,3.65
2019-03-30T05:49:39.350Z,3.65
2019-03-30T05:50:40.169Z,3.66
2019-03-30T05:51:40.641Z,3.66
2019-03-30T05:52:41.362Z,3.66
2019-03-30T05:53:42.043Z,3.67
2019-03-30T05:54:42.645Z,3.67
2019-03-30T05:55:43.150Z,3.67
2019-03-30T05:56:43.830Z,3.68
2019-03-30T05:57:44.393Z,3.69
2019-03-30T05:58:45.040Z,3.70
2019-03-30T05:59:45.623Z,3.71
2019-03-30T06:00:46.178Z,3.72
2019-03-30T06:01:46.978Z,3.73
2019-03-30T06:02:47.672Z,3.75
2019-03-30T06:03:47.277Z,3.77
2019-03-30T06:04:48.920Z,3.79
2019-03-30T06:05:49.449Z,3.80
2019-03-30T06:06:50.087Z,3.81
2019-03-30T06:07:50.745Z,3.81
2019-03-30T06:08:51.304Z,3.81
2019-03-30T06:09:51.373Z,3.82
2019-03-30T06:10:51.925Z,3.82
2019-03-30T06:11:52.802Z,3.83
2019-03-30T06:12:53.397Z,3.83
2019-03-30T06:13:53.961Z,3.84
2019-03-30T06:14:54.858Z,3.85
2019-03-30T06:15:55.453Z,3.85
2019-03-30T06:16:56.344Z,3.86
2019-03-30T06:17:57.058Z,3.87
2019-03-30T06:18:57.612Z,3.88
2019-03-30T06:19:58.155Z,3.89
2019-03-30T06:20:59.071Z,3.90
2019-03-30T06:21:59.626Z,3.91
2019-03-30T06:23:00.231Z,3.92
2019-03-30T06:24:00.746Z,3.93
2019-03-30T06:25:01.322Z,3.94
2019-03-30T06:26:01.322Z,3.95
2019-03-30T06:26:09.872Z,4.12
2019-03-30T06:27:11.673Z,4.12
2019-03-30T06:28:12.189Z,4.11
2019-03-30T06:29:13.083Z,4.11
2019-03-30T06:30:13.624Z,4.11
2019-03-30T06:31:14.557Z,4.11
2019-03-30T06:32:15.519Z,4.12
2019-03-30T06:33:16.091Z,4.12
2019-03-30T06:34:16.884Z,4.13
2019-03-30T06:35:17.488Z,4.13
2019-03-30T06:36:18.059Z,4.13
2019-03-30T06:37:18.603Z,4.14
2019-03-30T06:38:19.201Z,4.14
2019-03-30T06:39:20.083Z,4.14
2019-03-30T06:40:20.785Z,4.14
2019-03-30T06:41:21.637Z,4.14
2019-03-30T06:42:21.970Z,4.15
2019-03-30T06:43:22.099Z,4.15
2019-03-30T06:44:22.752Z,4.15
2019-03-30T06:45:23.356Z,4.16
2019-03-30T06:46:23.674Z,4.18
2019-03-30T06:47:24.650Z,4.20
2019-03-30T06:48:25.269Z,4.23
2019-03-30T06:49:25.476Z,4.28
2019-03-30T06:50:26.422Z,4.35
2019-03-30T06:51:27.249Z,4.43
2019-03-30T06:52:27.409Z,4.53
2019-03-30T06:53:28.191Z,4.66
2019-03-30T06:54:28.889Z,4.80
2019-03-30T06:55:29.677Z,4.94
2019-03-30T06:56:30.606Z,5.10
2019-03-30T06:57:30.181Z,5.26
2019-03-30T06:58:31.769Z,5.41
2019-03-30T06:59:32.354Z,5.57
2019-03-30T07:00:32.541Z,5.72
2019-03-30T07:01:33.168Z,5.88
2019-03-30T07:02:33.775Z,6.02
2019-03-30T07:03:34.555Z,6.19
2019-03-30T07:04:35.281Z,6.37
2019-03-30T07:05:36.282Z,6.58
2019-03-30T07:06:36.937Z,6.79
2019-03-30T07:07:37.807Z,6.96
2019-03-30T07:08:38.486Z,7.16
2019-03-30T07:09:38.852Z,7.39
2019-03-30T07:10:39.518Z,7.62
2019-03-30T07:10:50.087Z,11.59
2019-03-30T07:11:51.342Z,11.61
2019-03-30T07:12:52.189Z,11.65
2019-03-30T07:13:52.863Z,11.72
2019-03-30T07:14:53.611Z,11.79
2019-03-30T07:15:54.361Z,11.87
2019-03-30T07:16:55.325Z,11.97
2019-03-30T07:17:55.999Z,12.09
2019-03-30T07:18:56.624Z,12.22
2019-03-30T07:19:57.568Z,12.35
2019-03-30T07:20:58.455Z,12.45
2019-03-30T07:21:59.224Z,12.59
2019-03-30T07:23:11.234Z,12.73
2019-03-30T07:23:58.929Z,12.85
2019-03-30T07:25:00.783Z,12.99
2019-03-30T07:26:01.498Z,13.15
2019-03-30T07:27:02.203Z,13.30
2019-03-30T07:28:02.865Z,13.42
2019-03-30T07:29:03.399Z,13.56
2019-03-30T07:30:03.967Z,13.72
2019-03-30T07:31:04.673Z,13.86
2019-03-30T07:32:05.389Z,13.99
2019-03-30T07:33:05.880Z,14.13
2019-03-30T07:34:06.436Z,14.27
2019-03-30T07:35:07.235Z,14.47
2019-03-30T07:36:07.800Z,14.72
2019-03-30T07:37:08.745Z,14.93
2019-03-30T07:38:09.399Z,15.06
2019-03-30T07:39:10.016Z,15.20
2019-03-30T07:40:10.633Z,15.34
2019-03-30T07:41:11.388Z,15.53
2019-03-30T07:42:12.349Z,15.74
2019-03-30T07:43:13.124Z,15.93
2019-03-30T07:44:13.854Z,16.09
2019-03-30T07:45:14.553Z,16.23
2019-03-30T07:46:15.433Z,16.36
2019-03-30T07:47:15.555Z,16.50
2019-03-30T07:48:15.540Z,16.60
2019-03-30T07:49:16.125Z,16.64
2019-03-30T07:50:16.641Z,16.71
2019-03-30T07:51:17.367Z,16.78
2019-03-30T07:52:16.424Z,16.87
2019-03-30T07:53:26.186Z,16.92
2019-03-30T07:54:17.892Z,16.96
2019-03-30T07:55:19.413Z,17.02
2019-03-30T07:56:20.056Z,17.07
2019-03-30T07:56:28.544Z,17.85
2019-03-30T07:57:30.210Z,17.85
2019-03-30T07:58:30.795Z,17.89
2019-03-30T07:59:31.400Z,17.94
2019-03-30T08:00:32.084Z,18.00
2019-03-30T08:01:32.713Z,18.08
2019-03-30T08:02:33.674Z,18.12
2019-03-30T08:03:34.551Z,18.15
2019-03-30T08:04:35.120Z,18.23
2019-03-30T08:05:35.775Z,18.36
2019-03-30T08:06:36.463Z,18.42
2019-03-30T08:07:37.283Z,18.47
2019-03-30T08:08:37.867Z,18.55
2019-03-30T08:09:38.637Z,18.63
2019-03-30T08:10:39.204Z,18.69
2019-03-30T08:11:39.763Z,18.75
2019-03-30T08:12:40.349Z,18.82
2019-03-30T08:13:40.980Z,18.89
2019-03-30T08:14:44.948Z,18.95
2019-03-30T08:15:41.422Z,18.99
2019-03-30T08:16:43.082Z,19.03
2019-03-30T08:17:42.889Z,19.06
2019-03-30T08:18:44.800Z,19.10
2019-03-30T08:19:45.451Z,19.14
2019-03-30T08:20:45.979Z,19.19
2019-03-30T08:21:46.523Z,19.25
2019-03-30T08:22:46.628Z,19.33
2019-03-30T08:23:47.185Z,19.37
2019-03-30T08:24:47.815Z,19.43
2019-03-30T08:25:48.436Z,19.47
2019-03-30T08:26:49.114Z,19.50
2019-03-30T08:27:49.630Z,19.53
2019-03-30T08:28:50.216Z,19.57
2019-03-30T08:29:50.739Z,19.65
2019-03-30T08:30:51.402Z,19.75
2019-03-30T08:31:51.883Z,19.84
2019-03-30T08:32:52.442Z,19.90
2019-03-30T08:33:53.153Z,19.93
2019-03-30T08:34:53.744Z,19.90
2019-03-30T08:35:54.569Z,19.88
2019-03-30T08:36:55.053Z,19.86
2019-03-30T08:37:55.742Z,19.89
2019-03-30T08:38:56.282Z,19.92
2019-03-30T08:39:56.870Z,19.94
2019-03-30T08:40:57.388Z,19.96
2019-03-30T08:41:58.062Z,19.98
2019-03-30T08:42:09.144Z,19.95
2019-03-30T08:43:10.440Z,19.91
2019-03-30T08:44:11.244Z,19.89
2019-03-30T08:45:11.876Z,19.90
2019-03-30T08:46:12.443Z,19.90
2019-03-30T08:47:13.267Z,19.91
2019-03-30T08:48:13.976Z,19.93
2019-03-30T08:49:14.938Z,19.95
2019-03-30T08:50:15.651Z,19.93
2019-03-30T08:51:16.606Z,19.90
2019-03-30T08:52:17.188Z,19.86
2019-03-30T08:53:17.678Z,19.82
2019-03-30T08:54:18.284Z,19.80
2019-03-30T08:55:18.857Z,19.75
2019-03-30T08:56:19.527Z,19.69
2019-03-30T08:57:20.329Z,19.66
2019-03-30T08:58:20.870Z,19.61
2019-03-30T08:59:21.434Z,19.56
2019-03-30T09:00:21.977Z,19.52
2019-03-30T09:01:22.571Z,19.50
2019-03-30T09:02:23.244Z,19.49
2019-03-30T09:03:22.885Z,19.48
2019-03-30T09:04:24.662Z,19.45
2019-03-30T09:05:25.329Z,19.43
2019-03-30T09:06:25.934Z,19.44
2019-03-30T09:07:26.493Z,19.47
2019-03-30T09:08:27.161Z,19.48
2019-03-30T09:09:27.764Z,19.47
2019-03-30T09:10:28.302Z,19.44
2019-03-30T09:11:29.081Z,19.42
2019-03-30T09:12:29.284Z,19.38
2019-03-30T09:13:29.389Z,19.35
2019-03-30T09:14:29.677Z,19.31
2019-03-30T09:15:30.195Z,19.27
2019-03-30T09:16:30.755Z,19.22
2019-03-30T09:17:31.324Z,19.17
2019-03-30T09:18:31.838Z,19.12
2019-03-30T09:19:31.994Z,19.07
2019-03-30T09:20:32.151Z,19.00
2019-03-30T09:21:32.923Z,18.93
2019-03-30T09:22:33.582Z,18.86
2019-03-30T09:23:34.221Z,18.80
2019-03-30T09:24:34.840Z,18.74
2019-03-30T09:25:35.346Z,18.68
2019-03-30T09:25:43.880Z,17.87
2019-03-30T09:26:45.453Z,17.85
2019-03-30T09:27:46.452Z,17.84
2019-03-30T09:28:47.073Z,17.83
2019-03-30T09:29:47.896Z,17.82
2019-03-30T09:30:48.484Z,17.81
2019-03-30T09:31:49.009Z,17.80
2019-03-30T09:32:49.608Z,17.79
2019-03-30T09:33:50.267Z,17.78
2019-03-30T09:34:50.984Z,17.79
2019-03-30T09:35:51.550Z,17.79
2019-03-30T09:36:52.326Z,17.79
2019-03-30T09:37:51.929Z,17.80
2019-03-30T09:38:51.998Z,17.81
2019-03-30T09:39:53.210Z,17.81
2019-03-30T09:40:53.871Z,17.83
2019-03-30T09:41:54.430Z,17.83
2019-03-30T09:42:55.050Z,17.84
2019-03-30T09:43:55.849Z,17.84
2019-03-30T09:44:56.495Z,17.85
2019-03-30T09:45:57.220Z,17.85
2019-03-30T09:46:58.174Z,17.85
2019-03-30T09:47:58.891Z,17.86
2019-03-30T09:48:59.573Z,17.87
2019-03-30T09:50:02.507Z,17.87
2019-03-30T09:50:59.725Z,17.86
2019-03-30T09:52:01.313Z,17.86
2019-03-30T09:53:01.864Z,17.86
2019-03-30T09:54:02.614Z,17.86
2019-03-30T09:55:03.309Z,17.86
2019-03-30T09:56:04.014Z,17.85
2019-03-30T09:57:04.694Z,17.85
2019-03-30T09:58:03.644Z,17.85
2019-03-30T09:59:04.672Z,17.86
2019-03-30T10:00:05.202Z,17.87
2019-03-30T10:01:05.751Z,17.88
2019-03-30T10:02:06.222Z,17.89
2019-03-30T10:03:06.759Z,17.91
2019-03-30T10:04:07.488Z,17.95
2019-03-30T10:05:08.026Z,17.98
2019-03-30T10:06:08.617Z,18.01
2019-03-30T10:07:09.160Z,18.04
2019-03-30T10:08:09.228Z,18.08
2019-03-30T10:09:09.829Z,18.10
2019-03-30T10:10:10.431Z,18.14
2019-03-30T10:11:11.031Z,18.18
2019-03-30T10:12:11.656Z,18.23
2019-03-30T10:13:12.555Z,18.29
2019-03-30T10:13:21.071Z,19.29
2019-03-30T10:14:22.095Z,19.28
2019-03-30T10:15:23.035Z,19.27
2019-03-30T10:16:22.815Z,19.27
2019-03-30T10:17:23.843Z,19.27
2019-03-30T10:18:24.515Z,19.26
2019-03-30T10:19:27.709Z,19.25
2019-03-30T10:20:25.019Z,19.25
2019-03-30T10:21:26.698Z,19.26
2019-03-30T10:22:27.315Z,19.28
2019-03-30T10:23:28.205Z,19.29
2019-03-30T10:24:37.932Z,19.30
2019-03-30T10:25:28.691Z,19.31
2019-03-30T10:26:30.316Z,19.32
2019-03-30T10:27:30.887Z,19.32
2019-03-30T10:28:31.494Z,19.32
2019-03-30T10:29:32.036Z,19.33
2019-03-30T10:30:32.987Z,19.35
2019-03-30T10:31:33.581Z,19.38
2019-03-30T10:32:34.128Z,19.41
2019-03-30T10:33:34.633Z,19.43
2019-03-30T10:34:34.891Z,19.45
2019-03-30T10:35:35.157Z,19.49
2019-03-30T10:36:35.770Z,19.52
2019-03-30T10:37:36.664Z,19.54
2019-03-30T10:38:37.483Z,19.56
2019-03-30T10:39:38.123Z,19.59
2019-03-30T10:40:38.745Z,19.62
2019-03-30T10:41:39.474Z,19.66
2019-03-30T10:42:40.203Z,19.69
2019-03-30T10:43:41.084Z,19.74
2019-03-30T10:44:41.863Z,19.78
2019-03-30T10:45:42.449Z,19.82
2019-03-30T10:46:43.076Z,19.86
2019-03-30T10:47:43.594Z,19.91
2019-03-30T10:48:44.177Z,19.94
2019-03-30T10:49:44.722Z,19.97
2019-03-30T10:50:45.259Z,20.01
2019-03-30T10:51:46.073Z,20.05
2019-03-30T10:52:46.612Z,20.08
2019-03-30T10:53:47.204Z,20.11
2019-03-30T10:54:53.029Z,20.14
2019-03-30T10:55:47.737Z,20.16
2019-03-30T10:56:49.401Z,20.19
2019-03-30T10:57:50.035Z,20.21
2019-03-30T10:58:50.561Z,20.23
2019-03-30T10:59:51.554Z,20.24
2019-03-30T11:00:00.583Z,20.39
2019-03-30T11:01:02.087Z,20.39
2019-03-30T11:02:02.809Z,20.40
2019-03-30T11:03:03.010Z,20.42
2019-03-30T11:04:03.697Z,20.43
2019-03-30T11:05:04.521Z,20.45
2019-03-30T11:06:03.972Z,20.47
2019-03-30T11:07:05.608Z,20.46
2019-03-30T11:08:05.578Z,20.45
2019-03-30T11:09:06.110Z,20.45
2019-03-30T11:10:06.635Z,20.45
2019-03-30T11:11:07.384Z,20.45
2019-03-30T11:12:08.113Z,20.44
2019-03-30T11:13:08.701Z,20.43
2019-03-30T11:14:09.233Z,20.42
2019-03-30T11:15:09.507Z,20.41
2019-03-30T11:16:09.574Z,20.40
2019-03-30T11:17:10.253Z,20.40
2019-03-30T11:18:10.946Z,20.39
2019-03-30T11:19:11.721Z,20.38
2019-03-30T11:20:12.208Z,20.36
2019-03-30T11:21:12.755Z,20.35
2019-03-30T11:22:13.733Z,20.34
2019-03-30T11:23:13.373Z,20.34
2019-03-30T11:24:15.154Z,20.33
2019-03-30T11:25:15.696Z,20.33
2019-03-30T11:26:15.810Z,20.32
2019-03-30T11:27:15.842Z,20.32
2019-03-30T11:28:16.684Z,20.32
2019-03-30T11:29:16.208Z,20.31
2019-03-30T11:30:18.006Z,20.31
2019-03-30T11:31:18.685Z,20.31
2019-03-30T11:32:18.508Z,20.31
2019-03-30T11:33:20.793Z,20.31
2019-03-30T11:34:20.693Z,20.32
2019-03-30T11:35:20.809Z,20.32
2019-03-30T11:36:21.416Z,20.32
2019-03-30T11:37:21.981Z,20.30
2019-03-30T11:38:22.547Z,20.28
2019-03-30T11:39:23.441Z,20.27
2019-03-30T11:40:24.125Z,20.26
2019-03-30T11:41:25.099Z,20.26
2019-03-30T11:42:24.288Z,20.26
2019-03-30T11:43:25.938Z,20.24
2019-03-30T11:44:26.529Z,20.24
2019-03-30T11:45:26.558Z,20.23
2019-03-30T11:46:27.191Z,20.22
2019-03-30T11:46:35.727Z,20.25
2019-03-30T11:47:36.784Z,20.24
2019-03-30T11:48:37.797Z,20.23
2019-03-30T11:49:37.084Z,20.23
2019-03-30T11:50:38.340Z,20.23
2019-03-30T11:51:38.963Z,20.23
2019-03-30T11:52:39.600Z,20.24
2019-03-30T11:53:40.386Z,20.25
2019-03-30T11:54:40.945Z,20.26
2019-03-30T11:55:40.974Z,20.26
2019-03-30T11:56:41.876Z,20.27
2019-03-30T11:57:42.396Z,20.27
2019-03-30T11:58:42.994Z,20.27
2019-03-30T11:59:43.820Z,20.29
2019-03-30T12:00:44.331Z,20.30
2019-03-30T12:01:45.141Z,20.31
2019-03-30T12:02:45.586Z,20.31
2019-03-30T12:03:46.313Z,20.31
2019-03-30T12:04:47.006Z,20.31
2019-03-30T12:05:47.959Z,20.31
2019-03-30T12:06:51.682Z,20.31
2019-03-30T12:07:48.371Z,20.31
2019-03-30T12:08:50.261Z,20.30
2019-03-30T12:09:50.811Z,20.30
2019-03-30T12:10:51.511Z,20.31
2019-03-30T12:11:52.086Z,20.30
2019-03-30T12:12:52.278Z,20.30
2019-03-30T12:13:53.045Z,20.28
2019-03-30T12:14:53.846Z,20.26
2019-03-30T12:15:54.698Z,20.25
2019-03-30T12:16:55.597Z,20.24
2019-03-30T12:17:56.266Z,20.25
2019-03-30T12:18:56.798Z,20.25
2019-03-30T12:19:57.454Z,20.26
2019-03-30T12:20:58.015Z,20.28
2019-03-30T12:21:58.982Z,20.30
2019-03-30T12:22:59.536Z,20.32
2019-03-30T12:24:00.234Z,20.34
2019-03-30T12:25:00.941Z,20.36
2019-03-30T12:26:01.552Z,20.38
2019-03-30T12:27:02.118Z,20.40
2019-03-30T12:28:02.683Z,20.42
2019-03-30T12:29:03.463Z,20.44
2019-03-30T12:30:04.176Z,20.46
2019-03-30T12:31:05.151Z,20.48
2019-03-30T12:32:05.750Z,20.50
2019-03-30T12:32:14.798Z,20.70
2019-03-30T12:33:16.775Z,20.69
2019-03-30T12:34:17.645Z,20.68
2019-03-30T12:35:18.440Z,20.69
2019-03-30T12:36:17.579Z,20.69
2019-03-30T12:37:18.893Z,20.69
2019-03-30T12:38:19.461Z,20.68
2019-03-30T12:39:20.214Z,20.69
2019-03-30T12:40:21.064Z,20.70
2019-03-30T12:41:21.632Z,20.71
2019-03-30T12:42:22.375Z,20.72
2019-03-30T12:43:23.017Z,20.74
2019-03-30T12:44:23.934Z,20.75
2019-03-30T12:45:24.498Z,20.78
2019-03-30T12:46:25.093Z,20.80
2019-03-30T12:47:25.736Z,20.83
2019-03-30T12:48:26.293Z,20.86
2019-03-30T12:49:27.234Z,20.87
2019-03-30T12:50:27.992Z,20.87
2019-03-30T12:51:28.530Z,20.85
2019-03-30T12:52:29.034Z,20.85
2019-03-30T12:53:29.632Z,20.85
2019-03-30T12:54:30.357Z,20.84
2019-03-30T12:55:30.935Z,20.83
2019-03-30T12:56:31.509Z,20.82
2019-03-30T12:57:32.094Z,20.80
2019-03-30T12:58:32.639Z,20.77
2019-03-30T12:59:33.158Z,20.74
2019-03-30T13:00:33.745Z,20.72